createdAt,value
2022-09-10T00:00:55.933Z,98.30
2022-09-10T00:03:51.289Z,99.10
2022-09-10T00:06:46.601Z,98.60
2022-09-10T00:09:41.153Z,98.30
2022-09-10T00:12:36.569Z,98.40
2022-09-10T00:15:31.098Z,97.50
2022-09-10T00:18:25.902Z,97.10
2022-09-10T00:21:24.776Z,97.90
2022-09-10T00:24:19.280Z,97.70
2022-09-10T00:27:13.805Z,97.30
2022-09-10T00:30:09.334Z,94.30
2022-09-10T00:33:04.127Z,93.90
2022-09-10T00:36:01.386Z,93.80
2022-09-10T00:38:56.182Z,94.10
2022-09-10T00:41:51.452Z,92.40
2022-09-10T00:44:47.173Z,92.90
2022-09-10T00:47:42.571Z,92.60
2022-09-10T00:50:44.800Z,93.40
2022-09-10T00:53:39.409Z,91.60
2022-09-10T00:56:36.029Z,90.60
2022-09-10T00:59:32.294Z,90.50
2022-09-10T01:02:28.247Z,91.10
2022-09-10T01:05:23.833Z,91.50
2022-09-10T01:08:20.373Z,90.00
2022-09-10T01:11:48.991Z,91.00
2022-09-10T01:14:57.849Z,91.10
2022-09-10T01:18:06.795Z,91.40
2022-09-10T01:21:19.255Z,91.30
2022-09-10T01:24:45.872Z,91.70
2022-09-10T01:27:56.182Z,90.30
2022-09-10T01:30:57.539Z,89.50
2022-09-10T01:34:31.063Z,87.40
2022-09-10T01:37:32.134Z,90.10
2022-09-10T01:40:31.339Z,88.70
2022-09-10T01:43:26.481Z,87.10
2022-09-10T01:46:29.601Z,85.70
2022-09-10T01:50:02.361Z,82.00
2022-09-10T01:53:15.243Z,83.60
2022-09-10T01:56:36.812Z,84.60
2022-09-10T01:59:52.189Z,87.30
2022-09-10T02:03:12.605Z,86.80
2022-09-10T02:06:11.835Z,88.20
2022-09-10T02:09:08.148Z,82.50
2022-09-10T02:12:03.543Z,82.40
2022-09-10T02:15:00.142Z,81.80
2022-09-10T02:17:55.024Z,81.00
2022-09-10T02:20:52.762Z,78.20
2022-09-10T02:23:51.926Z,78.70
2022-09-10T02:26:48.528Z,81.20
2022-09-10T02:29:43.438Z,82.70
2022-09-10T02:32:38.038Z,81.50
2022-09-10T02:35:32.625Z,82.30
2022-09-10T02:38:27.330Z,79.20
2022-09-10T02:41:23.017Z,83.00
2022-09-10T02:44:17.885Z,83.90
2022-09-10T02:47:13.918Z,78.30
2022-09-10T02:50:10.038Z,77.30
2022-09-10T02:53:04.570Z,80.70
2022-09-10T02:55:59.463Z,79.70
2022-09-10T02:58:54.317Z,80.40
2022-09-10T03:01:49.670Z,79.40
2022-09-10T03:04:44.256Z,79.60
2022-09-10T03:07:38.777Z,78.80
2022-09-10T03:10:33.544Z,76.50
2022-09-10T03:13:29.885Z,77.10
2022-09-10T03:16:25.436Z,76.00
2022-09-10T03:19:20.005Z,74.90
2022-09-10T03:22:14.502Z,74.80
2022-09-10T03:25:09.597Z,75.10
2022-09-10T03:28:04.371Z,73.10
2022-09-10T03:30:58.980Z,72.20
2022-09-10T03:33:53.688Z,72.40
2022-09-10T03:36:48.692Z,72.50
2022-09-10T03:39:43.280Z,70.70
2022-09-10T03:42:37.871Z,71.00
2022-09-10T03:45:32.404Z,72.00
2022-09-10T03:48:27.311Z,71.40
2022-09-10T03:51:21.929Z,70.60
2022-09-10T03:54:17.161Z,69.70
2022-09-10T03:57:11.841Z,69.90
2022-09-10T04:00:07.834Z,69.10
2022-09-10T04:03:02.501Z,68.60
2022-09-10T04:05:57.121Z,68.50
2022-09-10T04:08:55.093Z,67.90
2022-09-10T04:11:49.672Z,65.70
2022-09-10T04:14:46.698Z,67.40
2022-09-10T04:17:41.468Z,67.40
2022-09-10T04:20:37.288Z,64.30
2022-09-10T04:23:32.039Z,66.80
2022-09-10T04:26:26.702Z,66.50
2022-09-10T04:29:21.488Z,66.30
2022-09-10T04:32:16.021Z,65.70
2022-09-10T04:35:11.508Z,66.30
2022-09-10T04:38:06.187Z,63.70
2022-09-10T04:41:04.796Z,63.80
2022-09-10T04:43:59.818Z,66.00
2022-09-10T04:46:55.679Z,65.00
2022-09-10T04:49:50.486Z,62.80
2022-09-10T04:52:45.293Z,64.10
2022-09-10T04:55:41.921Z,64.40
2022-09-10T04:58:38.853Z,65.90
2022-09-10T05:01:34.431Z,65.90
2022-09-10T05:04:29.262Z,64.60
2022-09-10T05:07:23.789Z,64.70
2022-09-10T05:10:18.847Z,63.80
2022-09-10T05:13:13.636Z,64.80
2022-09-10T05:16:08.977Z,65.90
2022-09-10T05:19:03.964Z,65.50
2022-09-10T05:21:58.872Z,64.40
2022-09-10T05:24:53.397Z,65.90
2022-09-10T05:27:48.038Z,66.00
2022-09-10T05:30:42.551Z,66.50
2022-09-10T05:33:37.783Z,66.70
2022-09-10T05:36:35.686Z,66.10
2022-09-10T05:39:30.221Z,67.30
2022-09-10T05:42:25.153Z,67.30
2022-09-10T05:45:20.683Z,66.20
2022-09-10T05:48:15.240Z,65.60
2022-09-10T05:51:10.149Z,67.20
2022-09-10T05:54:05.057Z,67.50
2022-09-10T05:57:02.680Z,67.60
2022-09-10T05:59:57.849Z,66.70
2022-09-10T06:02:54.523Z,65.10
2022-09-10T06:05:54.351Z,66.00
2022-09-10T06:08:53.611Z,65.70
2022-09-10T06:11:51.385Z,64.70
2022-09-10T06:14:46.062Z,65.60
2022-09-10T06:17:41.382Z,66.50
2022-09-10T06:20:36.065Z,66.40
2022-09-10T06:23:31.240Z,66.90
2022-09-10T06:26:25.831Z,66.20
2022-09-10T06:29:20.676Z,65.00
2022-09-10T06:32:15.552Z,66.30
2022-09-10T06:35:11.390Z,67.40
2022-09-10T06:38:06.405Z,67.80
2022-09-10T06:41:02.538Z,66.60
2022-09-10T06:43:57.136Z,67.30
2022-09-10T06:47:30.456Z,66.80
2022-09-10T06:50:07.116Z,65.80
2022-09-10T06:53:01.707Z,66.70
2022-09-10T06:55:56.852Z,66.80
2022-09-10T06:58:51.405Z,68.20
2022-09-10T07:01:48.085Z,68.50
2022-09-10T07:04:42.722Z,68.10
2022-09-10T07:07:37.472Z,68.60
2022-09-10T07:10:32.906Z,67.90
2022-09-10T07:13:28.731Z,66.60
2022-09-10T07:16:28.321Z,67.20
2022-09-10T07:19:23.103Z,67.10
2022-09-10T07:22:18.406Z,67.00
2022-09-10T07:25:14.094Z,67.50
2022-09-10T07:28:14.399Z,67.00
2022-09-10T07:31:21.589Z,66.50
2022-09-10T07:34:16.200Z,66.30
2022-09-10T07:37:10.998Z,66.10
2022-09-10T07:40:06.044Z,66.90
2022-09-10T07:43:00.645Z,68.00
2022-09-10T07:45:55.173Z,67.60
2022-09-10T07:49:01.148Z,67.40
2022-09-10T07:51:59.859Z,68.40
2022-09-10T07:54:54.724Z,67.50
2022-09-10T07:57:49.900Z,67.10
2022-09-10T08:00:44.438Z,67.50
2022-09-10T08:03:39.617Z,67.80
2022-09-10T08:06:35.341Z,68.50
2022-09-10T08:09:29.849Z,69.00
2022-09-10T08:12:26.703Z,69.00
2022-09-10T08:15:21.292Z,68.00
2022-09-10T08:18:16.013Z,67.70
2022-09-10T08:21:10.871Z,68.30
2022-09-10T08:24:05.972Z,68.80
2022-09-10T08:27:00.521Z,69.30
2022-09-10T08:29:55.993Z,69.50
2022-09-10T08:32:50.668Z,69.90
2022-09-10T08:35:45.217Z,70.50
2022-09-10T08:38:41.783Z,70.70
2022-09-10T08:41:48.284Z,71.10
2022-09-10T08:45:13.084Z,71.70
2022-09-10T08:48:29.227Z,72.30
2022-09-10T08:51:30.328Z,72.70
2022-09-10T08:54:36.722Z,73.80
2022-09-10T08:57:46.487Z,73.10
2022-09-10T09:00:45.756Z,72.90
2022-09-10T09:03:46.630Z,73.70
2022-09-10T09:06:53.168Z,73.70
2022-09-10T09:09:54.545Z,73.50
2022-09-10T09:13:27.598Z,73.80
2022-09-10T09:16:40.387Z,74.00
2022-09-10T09:19:43.679Z,73.90
2022-09-10T09:22:55.001Z,74.30
2022-09-10T09:26:20.649Z,74.30
2022-09-10T09:29:25.362Z,74.30
2022-09-10T09:32:23.430Z,74.50
2022-09-10T09:35:40.265Z,74.70
2022-09-10T09:38:39.807Z,74.90
2022-09-10T09:41:54.521Z,75.30
2022-09-10T09:45:05.367Z,75.60
2022-09-10T09:48:01.299Z,75.70
2022-09-10T09:51:01.619Z,76.00
2022-09-10T09:54:46.657Z,76.30
2022-09-10T09:57:25.291Z,76.50
2022-09-10T10:00:40.000Z,76.90
2022-09-10T10:03:36.981Z,77.10
2022-09-10T10:06:35.955Z,77.40
2022-09-10T10:09:33.591Z,77.50
2022-09-10T10:12:32.809Z,78.00
2022-09-10T10:15:43.601Z,78.30
2022-09-10T10:18:38.220Z,78.80
2022-09-10T10:21:38.234Z,79.00
2022-09-10T10:24:35.151Z,79.10
2022-09-10T10:27:34.747Z,79.30
2022-09-10T10:30:34.880Z,79.10
2022-09-10T10:33:34.523Z,79.50
2022-09-10T10:36:38.810Z,79.80
2022-09-10T10:40:09.899Z,80.10
2022-09-10T10:43:36.661Z,80.50
2022-09-10T10:46:54.977Z,81.10
2022-09-10T10:49:56.852Z,81.60
2022-09-10T10:53:23.413Z,82.10
2022-09-10T10:56:33.394Z,82.60
2022-09-10T10:59:54.848Z,82.80
2022-09-10T11:03:02.561Z,83.00
2022-09-10T11:06:02.129Z,83.80
2022-09-10T11:09:13.357Z,84.90
2022-09-10T11:12:29.508Z,85.70
2022-09-10T11:16:08.747Z,86.40
2022-09-10T11:19:05.672Z,87.00
2022-09-10T11:22:21.290Z,87.80
2022-09-10T11:25:44.845Z,88.50
2022-09-10T11:29:01.784Z,89.20
2022-09-10T11:32:20.462Z,89.80
2022-09-10T11:35:27.958Z,90.10
2022-09-10T11:38:31.734Z,90.40
2022-09-10T11:41:30.295Z,90.60
2022-09-10T11:44:39.928Z,90.70
2022-09-10T11:47:44.757Z,90.90
2022-09-10T11:50:57.470Z,91.00
2022-09-10T11:53:52.546Z,91.10
2022-09-10T11:56:57.237Z,91.10
2022-09-10T12:00:13.770Z,91.20
2022-09-10T12:03:33.935Z,91.10
2022-09-10T12:06:39.604Z,91.30
2022-09-10T12:09:52.068Z,91.30
2022-09-10T12:12:51.533Z,91.40
2022-09-10T12:16:21.429Z,91.60
2022-09-10T12:19:41.599Z,91.80
2022-09-10T12:22:43.082Z,91.90
2022-09-10T12:25:37.638Z,92.10
2022-09-10T12:28:44.748Z,92.30
2022-09-10T12:32:11.174Z,92.30
2022-09-10T12:35:53.514Z,92.50
2022-09-10T12:39:24.814Z,92.70
2022-09-10T12:42:34.335Z,92.60
2022-09-10T12:46:04.421Z,92.90
2022-09-10T12:48:59.464Z,93.00
2022-09-10T12:51:59.175Z,93.30
2022-09-10T12:55:15.209Z,93.20
2022-09-10T12:58:25.461Z,93.30
2022-09-10T13:01:33.133Z,93.50
2022-09-10T13:04:30.419Z,93.90
2022-09-10T13:07:33.096Z,93.80
2022-09-10T13:10:30.193Z,94.20
2022-09-10T13:13:42.407Z,94.30
2022-09-10T13:16:36.909Z,94.50
2022-09-10T13:19:31.428Z,94.80
2022-09-10T13:23:05.157Z,94.80
2022-09-10T13:26:38.789Z,95.10
2022-09-10T13:29:39.455Z,95.60
2022-09-10T13:32:53.453Z,95.90
2022-09-10T13:36:02.977Z,96.30
2022-09-10T13:39:09.611Z,97.00
2022-09-10T13:42:32.377Z,97.50
2022-09-10T13:45:34.279Z,97.60
2022-09-10T13:48:34.201Z,97.70
2022-09-10T13:51:49.270Z,98.20
2022-09-10T13:54:56.779Z,98.70
2022-09-10T13:57:53.572Z,98.90
2022-09-10T14:01:14.538Z,98.90
2022-09-10T14:04:31.978Z,98.80
2022-09-10T14:07:30.100Z,98.90
2022-09-10T14:10:25.553Z,99.10
2022-09-10T14:13:29.569Z,99.20
2022-09-10T14:16:42.191Z,99.00
2022-09-10T14:19:52.950Z,99.20
2022-09-10T14:22:47.825Z,99.30
2022-09-10T14:25:45.066Z,99.30
2022-09-10T14:28:50.493Z,99.40
2022-09-10T14:31:45.058Z,99.40
2022-09-10T14:34:40.594Z,99.30
2022-09-10T14:37:39.640Z,99.20
2022-09-10T14:40:39.292Z,99.30
2022-09-10T14:43:36.907Z,99.30
2022-09-10T14:46:59.476Z,99.60
2022-09-10T14:49:54.549Z,99.70
2022-09-10T14:52:49.914Z,99.80
2022-09-10T14:55:44.443Z,99.80
2022-09-10T14:58:39.143Z,99.80
2022-09-10T15:01:35.611Z,99.80
2022-09-10T15:04:31.448Z,99.70
2022-09-10T15:07:26.285Z,99.60
2022-09-10T15:10:20.912Z,99.70
2022-09-10T15:13:20.027Z,99.70
2022-09-10T15:16:15.507Z,99.90
2022-09-10T15:19:10.265Z,99.90
2022-09-10T15:22:05.074Z,99.90
2022-09-10T15:25:10.163Z,99.90
2022-09-10T15:28:05.623Z,99.90
2022-09-10T15:31:00.717Z,99.90
2022-09-10T15:33:55.310Z,99.90
2022-09-10T15:36:49.951Z,99.90
2022-09-10T15:39:44.827Z,99.90
2022-09-10T15:42:39.409Z,99.90
2022-09-10T15:45:38.887Z,99.90
2022-09-10T15:48:34.847Z,99.90
2022-09-10T15:51:29.425Z,99.90
2022-09-10T15:54:23.994Z,99.90
2022-09-10T15:57:18.829Z,99.90
2022-09-10T16:00:14.449Z,99.90
2022-09-10T16:03:09.204Z,99.90
2022-09-10T16:06:05.967Z,99.90
2022-09-10T16:09:03.284Z,99.90
2022-09-10T16:11:57.853Z,99.90
2022-09-10T16:14:56.243Z,99.90
2022-09-10T16:17:51.043Z,99.90
2022-09-10T16:20:45.878Z,99.90
2022-09-10T16:23:44.063Z,99.90
2022-09-10T16:26:42.770Z,99.90
2022-09-10T16:29:37.628Z,99.90
2022-09-10T16:32:32.737Z,99.90
2022-09-10T16:35:27.842Z,99.90
2022-09-10T16:38:23.484Z,99.90
2022-09-10T16:41:18.770Z,99.90
2022-09-10T16:44:16.183Z,99.90
2022-09-10T16:47:10.986Z,99.90
2022-09-10T16:50:06.850Z,99.90
2022-09-10T16:53:01.361Z,99.90
2022-09-10T16:56:04.197Z,99.90
2022-09-10T16:58:58.921Z,99.90
2022-09-10T17:01:54.493Z,99.90
2022-09-10T17:04:49.131Z,99.90
2022-09-10T17:07:43.767Z,99.90
2022-09-10T17:10:38.303Z,99.90
2022-09-10T17:13:33.068Z,99.90
2022-09-10T17:16:33.869Z,99.90
2022-09-10T17:19:29.641Z,99.90
2022-09-10T17:22:24.148Z,99.90
2022-09-10T17:25:18.864Z,99.90
2022-09-10T17:28:14.129Z,99.90
2022-09-10T17:31:09.190Z,99.90
2022-09-10T17:34:04.978Z,99.90
2022-09-10T17:36:59.730Z,99.90
2022-09-10T17:39:54.914Z,99.90
2022-09-10T17:42:50.924Z,99.90
2022-09-10T17:45:45.443Z,99.90
2022-09-10T17:48:40.462Z,99.90
2022-09-10T17:51:36.705Z,99.90
2022-09-10T17:54:31.557Z,99.90
2022-09-10T17:57:26.081Z,99.90
2022-09-10T18:00:20.755Z,99.90
2022-09-10T18:03:16.746Z,99.90
2022-09-10T18:06:12.866Z,99.90
2022-09-10T18:09:09.091Z,99.90
2022-09-10T18:12:04.008Z,99.90
2022-09-10T18:14:58.609Z,99.90
2022-09-10T18:17:53.235Z,99.90
2022-09-10T18:20:47.780Z,99.90
2022-09-10T18:23:42.798Z,99.90
2022-09-10T18:26:40.709Z,99.90
2022-09-10T18:29:36.154Z,99.90
2022-09-10T18:32:30.725Z,99.90
2022-09-10T18:35:25.262Z,99.90
2022-09-10T18:38:19.862Z,99.90
2022-09-10T18:41:26.171Z,99.90
2022-09-10T18:44:23.490Z,99.90
2022-09-10T18:47:41.368Z,99.90
2022-09-10T18:50:32.082Z,99.90
2022-09-10T18:53:26.838Z,99.90
2022-09-10T18:56:26.706Z,99.90
2022-09-10T18:59:23.393Z,99.90
2022-09-10T19:02:19.145Z,99.90
2022-09-10T19:05:13.904Z,99.90
2022-09-10T19:08:08.421Z,99.90
2022-09-10T19:11:05.380Z,99.90
2022-09-10T19:13:59.925Z,99.90
2022-09-10T19:16:56.224Z,99.90
2022-09-10T19:19:51.445Z,99.90
2022-09-10T19:22:45.981Z,99.90
2022-09-10T19:25:40.609Z,99.90
2022-09-10T19:28:36.896Z,99.90
2022-09-10T19:31:35.112Z,99.90
2022-09-10T19:34:29.662Z,99.90
2022-09-10T19:37:25.544Z,99.90
2022-09-10T19:40:20.114Z,99.90
2022-09-10T19:43:14.621Z,99.90
2022-09-10T19:46:14.238Z,99.90
2022-09-10T19:49:11.385Z,99.90
2022-09-10T19:52:05.944Z,99.90
2022-09-10T19:55:01.697Z,99.90
2022-09-10T19:57:56.665Z,99.90
2022-09-10T20:00:51.150Z,99.90
2022-09-10T20:03:46.834Z,99.90
2022-09-10T20:06:42.434Z,99.90
2022-09-10T20:09:39.788Z,99.90
2022-09-10T20:12:34.660Z,99.90
2022-09-10T20:15:29.164Z,99.90
2022-09-10T20:18:32.465Z,99.90
2022-09-10T20:21:29.862Z,99.90
2022-09-10T20:24:25.125Z,99.90
2022-09-10T20:27:19.726Z,99.90
2022-09-10T20:30:14.350Z,99.90
2022-09-10T20:33:09.127Z,99.90
2022-09-10T20:36:05.043Z,99.90
2022-09-10T20:39:00.342Z,99.90
2022-09-10T20:41:55.346Z,99.90
2022-09-10T20:44:50.003Z,99.90
2022-09-10T20:47:44.570Z,99.90
2022-09-10T20:50:39.184Z,99.90
2022-09-10T20:53:38.473Z,99.90
2022-09-10T20:56:33.252Z,99.90
2022-09-10T20:59:27.999Z,99.90
2022-09-10T21:02:22.612Z,99.90
2022-09-10T21:05:17.240Z,99.90
2022-09-10T21:08:11.868Z,99.90
2022-09-10T21:11:11.729Z,99.90
2022-09-10T21:14:08.697Z,99.90
2022-09-10T21:17:03.221Z,99.90
2022-09-10T21:19:58.426Z,99.90
2022-09-10T21:22:52.979Z,99.90
2022-09-10T21:25:53.124Z,99.90
2022-09-10T21:28:48.429Z,99.90
2022-09-10T21:31:43.529Z,99.90
2022-09-10T21:34:38.045Z,99.90
2022-09-10T21:37:32.606Z,99.90
2022-09-10T21:40:27.195Z,99.90
2022-09-10T21:43:21.764Z,99.90
2022-09-10T21:46:17.019Z,99.90
2022-09-10T21:49:12.008Z,99.90
2022-09-10T21:52:07.069Z,99.90
2022-09-10T21:55:01.741Z,99.90
2022-09-10T21:57:56.326Z,99.90
2022-09-10T22:00:51.042Z,99.90
2022-09-10T22:03:47.842Z,99.90
2022-09-10T22:06:42.635Z,99.90
2022-09-10T22:09:38.173Z,99.90
2022-09-10T22:12:32.982Z,99.90
2022-09-10T22:15:27.682Z,99.90
2022-09-10T22:18:22.296Z,99.90
2022-09-10T22:21:17.918Z,99.90
2022-09-10T22:24:14.405Z,99.90
2022-09-10T22:27:08.980Z,99.90
2022-09-10T22:30:05.958Z,99.90
2022-09-10T22:33:00.884Z,99.90
2022-09-10T22:35:56.667Z,99.90
2022-09-10T22:38:57.524Z,99.90
2022-09-10T22:41:52.900Z,99.90
2022-09-10T22:44:47.450Z,99.90
2022-09-10T22:47:42.044Z,99.90
2022-09-10T22:50:36.554Z,99.90
2022-09-10T22:53:31.183Z,99.90
2022-09-10T22:56:29.852Z,99.90
2022-09-10T22:59:24.422Z,99.90
2022-09-10T23:02:19.979Z,99.90
2022-09-10T23:05:14.602Z,99.90
2022-09-10T23:08:09.391Z,99.90
2022-09-10T23:11:18.664Z,99.90
2022-09-10T23:14:20.307Z,99.90
2022-09-10T23:17:18.513Z,99.90
2022-09-10T23:20:16.497Z,99.90
2022-09-10T23:23:11.037Z,99.90
2022-09-10T23:26:13.862Z,99.90
2022-09-10T23:29:08.838Z,99.90
2022-09-10T23:32:03.471Z,99.80
2022-09-10T23:34:58.230Z,99.80
2022-09-10T23:37:53.443Z,99.90
2022-09-10T23:40:48.349Z,99.90
2022-09-10T23:43:43.614Z,99.90
2022-09-10T23:46:39.308Z,99.80
2022-09-10T23:49:33.848Z,99.90
2022-09-10T23:52:28.427Z,99.90
2022-09-10T23:55:24.062Z,99.90
2022-09-10T23:58:19.774Z,99.90
